»·PEaware :: UPS519 KPVD-KSDF

UPS519 :: KPVD-KSDF

FLIGHT INFORMATION

Flight Status: Arrived
Operator:
United Parcel Service
More flights by this operator :: More flights under this callsign
Pilot: Trevor D. (19070)
Aircraft: BOEING 757-200
(B752)
More flights by this aircraft type
Origin: KPVD Green State
United States
Destination: KSDF Louisville Intl-Standiford
United States
More flights between these airports :: More routes between these airports
Route: PUT CTR HNK PSB UKATS DLAMP5
File this flight plan on PilotEdge
Remarks:
Altitude:
(Current/Filed)
36,000ft
Speed:
(Current/Filed)
450kts
Departed: 18-May-19 09:19 AM
Arrived: 18-May-19 11:21 AM
Distance/Time
Traveled:
691nm/2:02
Distance/Time
To Go:
Arrived

Flight Plot

Page will automatically refresh every two minutes.

Flight plan parsing failed; only flown route is shown


Map Options




Map Legend


Flown Route
Filed Route
Departure Airport
Arrival Airport
Navaid (VOR, NDB)
Fix

Horizontal Profiles

Position Reports

Time Latitude Longitude Heading Altitude Ground
Speed
18-May-19 08:52 41.731163 -71.424296 178 67ft 0kts
18-May-19 08:53 41.731163 -71.424296 178 67ft 0kts
18-May-19 08:54 41.731163 -71.424296 178 67ft 0kts
18-May-19 08:55 41.731163 -71.424296 178 67ft 0kts
18-May-19 08:56 41.731163 -71.424296 178 67ft 0kts
18-May-19 08:57 41.731163 -71.424296 178 67ft 0kts
18-May-19 08:57 41.731163 -71.424296 178 67ft 0kts
18-May-19 08:59 41.731163 -71.424296 178 66ft 0kts
18-May-19 09:00 41.731163 -71.424296 178 66ft 0kts
18-May-19 09:00 41.731163 -71.424296 178 66ft 0kts
18-May-19 09:02 41.731163 -71.424296 178 66ft 0kts
18-May-19 09:03 41.731163 -71.424296 178 66ft 0kts
18-May-19 09:03 41.731163 -71.424296 178 66ft 0kts
18-May-19 09:04 41.731163 -71.424296 178 66ft 0kts
18-May-19 09:06 41.731163 -71.424296 178 66ft 0kts
18-May-19 09:06 41.731164 -71.424296 178 66ft 0kts
18-May-19 09:07 41.731595 -71.424320 161 66ft 2kts
18-May-19 09:08 41.731799 -71.424778 87 66ft 0kts
18-May-19 09:09 41.731799 -71.424777 87 66ft 0kts
18-May-19 09:10 41.731799 -71.424777 87 66ft 0kts
18-May-19 09:11 41.731804 -71.424606 88 66ft 3kts
18-May-19 09:12 41.730804 -71.422548 185 66ft 8kts
18-May-19 09:13 41.728454 -71.424402 212 66ft 11kts
18-May-19 09:14 41.725537 -71.426860 212 66ft 11kts
18-May-19 09:15 41.723115 -71.424573 141 66ft 13kts
18-May-19 09:16 41.719806 -71.421061 142 66ft 16kts
18-May-19 09:17 41.718383 -71.418905 56 66ft 8kts
18-May-19 09:18 41.725206 -71.425339 321 67ft 121kts
18-May-19 09:19 41.754188 -71.470621 297 1699ft 195kts
18-May-19 09:20 41.788447 -71.542228 307 4226ft 240kts
18-May-19 09:21 41.827618 -71.613462 308 7787ft 239kts
18-May-19 09:22 41.866877 -71.684128 306 10372ft 267kts
18-May-19 09:23 41.915704 -71.772187 305 12986ft 305kts
18-May-19 09:24 41.962739 -71.868316 293 16192ft 314kts
18-May-19 09:25 41.996805 -71.977781 293 19050ft 324kts
18-May-19 09:26 42.031766 -72.091176 293 21623ft 333kts
18-May-19 09:27 42.067555 -72.207812 293 23896ft 343kts
18-May-19 09:28 42.104118 -72.327575 293 25913ft 351kts
18-May-19 09:29 42.141580 -72.450822 294 27731ft 360kts
18-May-19 09:30 42.179692 -72.576797 294 29386ft 368kts
18-May-19 09:31 42.218523 -72.705806 294 30880ft 376kts
18-May-19 09:32 42.257689 -72.836607 294 32607ft 374kts
18-May-19 09:33 42.287381 -72.969516 276 34232ft 382kts
18-May-19 09:34 42.276857 -73.113971 271 35431ft 389kts
18-May-19 09:35 42.264272 -73.259239 271 36055ft 392kts
18-May-19 09:36 42.251293 -73.404937 271 36054ft 391kts
18-May-19 09:37 42.238152 -73.550159 270 36052ft 392kts
18-May-19 09:38 42.224728 -73.696307 270 36062ft 394kts
18-May-19 09:39 42.211079 -73.842652 269 36060ft 394kts
18-May-19 09:40 42.197250 -73.989111 269 36064ft 395kts
18-May-19 09:41 42.183199 -74.135747 269 36080ft 395kts
18-May-19 09:42 42.168941 -74.282570 269 36084ft 395kts
18-May-19 09:43 42.154567 -74.428613 269 36082ft 393kts
18-May-19 09:44 42.140044 -74.574248 269 36080ft 392kts
18-May-19 09:45 42.125302 -74.720098 268 36089ft 393kts
18-May-19 09:46 42.110430 -74.865355 268 36088ft 393kts
18-May-19 09:47 42.095326 -75.011070 268 36095ft 394kts
18-May-19 09:48 42.080045 -75.156626 268 36103ft 394kts
18-May-19 09:49 42.062950 -75.302651 259 36106ft 400kts
18-May-19 09:50 42.012489 -75.438689 248 36101ft 411kts
18-May-19 09:51 41.957119 -75.573803 247 36099ft 412kts
18-May-19 09:52 41.901552 -75.708090 247 36108ft 414kts
18-May-19 09:53 41.847942 -75.836995 247 36099ft 413kts
18-May-19 09:54 41.792037 -75.970816 247 36094ft 413kts
18-May-19 09:55 41.735933 -76.104512 247 36088ft 412kts
18-May-19 09:56 41.679592 -76.238229 247 36087ft 413kts
18-May-19 09:57 41.623063 -76.371739 246 36087ft 413kts
18-May-19 09:58 41.566430 -76.504882 246 36086ft 413kts
18-May-19 09:59 41.509508 -76.638104 246 36086ft 414kts
18-May-19 10:00 41.452234 -76.771595 245 36093ft 415kts
18-May-19 10:01 41.394779 -76.904910 245 36093ft 416kts
18-May-19 10:02 41.337276 -77.037705 244 36087ft 415kts
18-May-19 10:03 41.279654 -77.170209 244 36082ft 415kts
18-May-19 10:04 41.221760 -77.302739 244 36081ft 415kts
18-May-19 10:05 41.163580 -77.435359 244 36080ft 415kts
18-May-19 10:06 41.105455 -77.567294 244 36080ft 415kts
18-May-19 10:07 41.047183 -77.698958 243 36087ft 416kts
18-May-19 10:08 40.988623 -77.830699 243 36084ft 416kts
18-May-19 10:09 40.929737 -77.962739 244 36084ft 416kts
18-May-19 10:10 40.899833 -78.104617 260 36089ft 410kts
18-May-19 10:11 40.877845 -78.251710 260 36079ft 410kts
18-May-19 10:12 40.855669 -78.399289 260 36079ft 410kts
18-May-19 10:13 40.833250 -78.547162 260 36078ft 410kts
18-May-19 10:14 40.811105 -78.691890 260 36084ft 411kts
18-May-19 10:15 40.788308 -78.839541 260 36083ft 411kts
18-May-19 10:16 40.765350 -78.986971 260 36083ft 411kts
18-May-19 10:17 40.742255 -79.133983 260 36073ft 411kts
18-May-19 10:18 40.718831 -79.281753 260 36066ft 412kts
18-May-19 10:19 40.695220 -79.429474 260 36064ft 413kts
18-May-19 10:20 40.671406 -79.577076 260 36062ft 413kts
18-May-19 10:21 40.647960 -79.721214 259 36066ft 414kts
18-May-19 10:22 40.623665 -79.869392 259 36065ft 415kts
18-May-19 10:23 40.599267 -80.016830 259 36058ft 415kts
18-May-19 10:24 40.574615 -80.164612 259 36046ft 415kts
18-May-19 10:25 40.549726 -80.312578 259 36044ft 415kts
18-May-19 10:26 40.524504 -80.460185 256 36042ft 415kts
18-May-19 10:27 40.457660 -80.582641 217 36051ft 430kts
18-May-19 10:28 40.356130 -80.663478 214 36047ft 432kts
18-May-19 10:29 40.253475 -80.744705 214 36053ft 432kts
18-May-19 10:30 40.150760 -80.825810 214 36064ft 431kts
18-May-19 10:31 40.048403 -80.906529 214 36063ft 432kts
18-May-19 10:32 39.945749 -80.987395 214 36050ft 433kts
18-May-19 10:33 39.843086 -81.068138 214 36036ft 432kts
18-May-19 10:34 39.740722 -81.148503 214 36026ft 432kts
18-May-19 10:35 39.638164 -81.228894 214 36034ft 431kts
18-May-19 10:36 39.546933 -81.325176 239 36071ft 423kts
18-May-19 10:37 39.522041 -81.469266 279 36080ft 416kts
18-May-19 10:38 39.570689 -81.604042 297 36057ft 418kts
18-May-19 10:39 39.596698 -81.748998 274 36053ft 416kts
18-May-19 10:40 39.602989 -81.898547 272 36046ft 416kts
18-May-19 10:41 39.606923 -82.048473 272 36031ft 416kts
18-May-19 10:42 39.610386 -82.197615 272 36024ft 416kts
18-May-19 10:43 39.613635 -82.347774 272 36024ft 417kts
18-May-19 10:44 39.616701 -82.498008 272 36023ft 417kts
18-May-19 10:45 39.619565 -82.647762 272 36022ft 417kts
18-May-19 10:46 39.622155 -82.792736 271 36026ft 417kts
18-May-19 10:47 39.624647 -82.942823 271 36021ft 417kts
18-May-19 10:48 39.626944 -83.092865 271 36017ft 417kts
18-May-19 10:49 39.629050 -83.242995 271 36017ft 417kts
18-May-19 10:50 39.630969 -83.393458 271 36015ft 415kts
18-May-19 10:51 39.629008 -83.542511 258 36023ft 416kts
18-May-19 10:52 39.576020 -83.675145 237 35226ft 415kts
18-May-19 10:54 39.512107 -83.795909 236 33494ft 406kts
18-May-19 10:55 39.447220 -83.916254 236 31754ft 412kts
18-May-19 10:56 39.382188 -84.036206 236 29990ft 403kts
18-May-19 10:57 39.318724 -84.152827 235 28263ft 393kts
18-May-19 10:58 39.256840 -84.266129 235 26578ft 382kts
18-May-19 10:59 39.196223 -84.376741 235 24932ft 374kts
18-May-19 11:00 39.137190 -84.484069 235 23337ft 365kts
18-May-19 11:01 39.079234 -84.589114 235 21778ft 356kts
18-May-19 11:02 39.022249 -84.692049 234 20254ft 349kts
18-May-19 11:03 38.965919 -84.791673 234 18772ft 343kts
18-May-19 11:04 38.910294 -84.889507 234 17307ft 334kts
18-May-19 11:05 38.856327 -84.984140 233 15901ft 326kts
18-May-19 11:06 38.803796 -85.076003 233 14534ft 317kts
18-May-19 11:07 38.752006 -85.166314 233 13186ft 309kts
18-May-19 11:08 38.701713 -85.253769 233 11876ft 301kts
18-May-19 11:09 38.652591 -85.338955 232 10598ft 296kts
18-May-19 11:10 38.604806 -85.421613 232 9379ft 278kts
18-May-19 11:11 38.560464 -85.498126 233 8378ft 257kts
18-May-19 11:12 38.518564 -85.570260 233 7428ft 252kts
18-May-19 11:13 38.476898 -85.641849 233 6431ft 250kts
18-May-19 11:14 38.435605 -85.712623 232 5423ft 248kts
18-May-19 11:15 38.394683 -85.782607 232 4427ft 245kts
18-May-19 11:15 38.344635 -85.801860 165 3423ft 238kts
18-May-19 11:17 38.278167 -85.778841 169 2377ft 173kts
18-May-19 11:18 38.235640 -85.764877 171 1557ft 157kts
18-May-19 11:18 38.205048 -85.754737 168 921ft 121kts
18-May-19 11:19 38.173588 -85.744438 168 482ft 103kts
18-May-19 11:21 38.163418 -85.740445 102 464ft 17kts
18-May-19 11:21 38.163511 -85.737931 149 465ft 0kts
18-May-19 11:22 38.163511 -85.737931 149 465ft 0kts

Navigation Log

Ident Type
Flight plan parsing failed, navigation log unavailable